createdAt,value
2023-02-20T00:00:39.442Z,18.67
2023-02-20T00:01:39.453Z,18.67
2023-02-20T00:02:39.508Z,18.69
2023-02-20T00:03:39.560Z,18.67
2023-02-20T00:04:39.577Z,18.67
2023-02-20T00:05:39.627Z,18.66
2023-02-20T00:06:39.627Z,18.68
2023-02-20T00:07:39.668Z,18.66
2023-02-20T00:08:39.673Z,18.66
2023-02-20T00:09:39.730Z,18.67
2023-02-20T00:10:39.762Z,18.67
2023-02-20T00:11:39.809Z,18.67
2023-02-20T00:12:39.839Z,18.68
2023-02-20T00:13:39.852Z,18.68
2023-02-20T00:14:39.893Z,18.68
2023-02-20T00:15:39.945Z,18.68
2023-02-20T00:16:39.944Z,18.68
2023-02-20T00:17:39.997Z,18.69
2023-02-20T00:18:40.022Z,18.69
2023-02-20T00:19:40.049Z,18.69
2023-02-20T00:20:40.069Z,18.70
2023-02-20T00:21:40.108Z,18.70
2023-02-20T00:22:40.235Z,18.70
2023-02-20T00:23:40.186Z,18.70
2023-02-20T00:24:40.244Z,18.69
2023-02-20T00:25:40.239Z,18.69
2023-02-20T00:26:40.279Z,18.69
2023-02-20T00:27:40.328Z,18.69
2023-02-20T00:28:40.335Z,18.70
2023-02-20T00:29:40.376Z,18.71
2023-02-20T00:30:40.420Z,18.72
2023-02-20T00:31:40.498Z,18.72
2023-02-20T00:32:40.457Z,18.71
2023-02-20T00:36:40.619Z,18.72
2023-02-20T00:37:40.663Z,18.72
2023-02-20T00:38:40.719Z,18.72
2023-02-20T00:39:40.715Z,18.73
2023-02-20T00:40:40.798Z,18.72
2023-02-20T00:41:40.850Z,18.72
2023-02-20T00:42:40.846Z,18.74
2023-02-20T00:43:40.921Z,18.74
2023-02-20T00:44:40.919Z,18.74
2023-02-20T00:45:40.994Z,18.73
2023-02-20T00:46:41.073Z,18.74
2023-02-20T00:47:41.050Z,18.74
2023-02-20T00:48:41.126Z,18.73
2023-02-20T00:49:41.090Z,18.74
2023-02-20T00:50:41.156Z,18.72
2023-02-20T00:51:41.175Z,18.74
2023-02-20T00:52:41.227Z,18.74
2023-02-20T00:53:41.251Z,18.74
2023-02-20T00:54:41.362Z,18.72
2023-02-20T00:55:41.369Z,18.72
2023-02-20T00:56:41.375Z,18.73
2023-02-20T00:57:41.422Z,18.74
2023-02-20T00:58:41.503Z,18.74
2023-02-20T00:59:41.494Z,18.74
2023-02-20T01:00:41.551Z,18.75
2023-02-20T01:01:41.609Z,18.74
2023-02-20T01:02:41.656Z,18.73
2023-02-20T01:03:41.630Z,18.72
2023-02-20T01:04:41.666Z,18.72
2023-02-20T01:05:41.693Z,18.72
2023-02-20T01:06:41.744Z,18.72
2023-02-20T01:07:41.732Z,18.73
2023-02-20T01:08:41.780Z,18.71
2023-02-20T01:09:41.808Z,18.72
2023-02-20T01:10:41.880Z,18.70
2023-02-20T01:11:41.875Z,18.71
2023-02-20T01:12:41.902Z,18.71
2023-02-20T01:13:41.921Z,18.71
2023-02-20T01:14:41.987Z,18.71
2023-02-20T01:15:42.063Z,18.71
2023-02-20T01:17:42.079Z,18.72
2023-02-20T01:18:42.071Z,18.73
2023-02-20T01:19:42.198Z,18.72
2023-02-20T01:20:42.186Z,18.72
2023-02-20T01:21:42.225Z,18.69
2023-02-20T01:22:42.265Z,18.70
2023-02-20T01:23:42.279Z,18.71
2023-02-20T01:24:42.314Z,18.70
2023-02-20T01:25:42.376Z,18.71
2023-02-20T01:26:42.393Z,18.71
2023-02-20T01:27:42.424Z,18.71
2023-02-20T01:28:42.427Z,18.70
2023-02-20T01:29:42.480Z,18.70
2023-02-20T01:30:42.539Z,18.70
2023-02-20T01:31:42.702Z,18.70
2023-02-20T01:32:42.617Z,18.71
2023-02-20T01:33:42.651Z,18.70
2023-02-20T01:34:42.692Z,18.70
2023-02-20T01:35:42.709Z,18.71
2023-02-20T01:36:42.772Z,18.71
2023-02-20T01:37:42.794Z,18.70
2023-02-20T01:38:42.850Z,18.70
2023-02-20T01:39:42.848Z,18.70
2023-02-20T01:40:42.912Z,18.70
2023-02-20T01:41:42.956Z,18.69
2023-02-20T01:42:42.954Z,18.70
2023-02-20T01:43:42.999Z,18.70
2023-02-20T01:44:43.029Z,18.69
2023-02-20T01:45:43.094Z,18.70
2023-02-20T01:46:43.161Z,18.70
2023-02-20T01:47:43.169Z,18.70
2023-02-20T01:48:43.192Z,18.69
2023-02-20T01:49:43.270Z,18.70
2023-02-20T01:50:43.274Z,18.70
2023-02-20T01:51:43.336Z,18.70
2023-02-20T01:52:43.340Z,18.69
2023-02-20T01:53:43.404Z,18.68
2023-02-20T01:54:43.416Z,18.67
2023-02-20T01:55:43.455Z,18.67
2023-02-20T01:56:43.482Z,18.66
2023-02-20T01:57:43.512Z,18.65
2023-02-20T01:58:43.518Z,18.64
2023-02-20T01:59:43.580Z,18.63
2023-02-20T02:00:43.675Z,18.63
2023-02-20T02:01:43.596Z,18.60
2023-02-20T02:02:43.642Z,18.60
2023-02-20T02:03:43.646Z,18.58
2023-02-20T02:04:43.651Z,18.56
2023-02-20T02:05:43.692Z,18.55
2023-02-20T02:06:43.656Z,18.54
2023-02-20T02:07:43.753Z,18.50
2023-02-20T02:08:43.672Z,18.51
2023-02-20T02:09:43.801Z,18.47
2023-02-20T02:10:43.683Z,18.45
2023-02-20T02:11:43.691Z,18.45
2023-02-20T02:12:43.692Z,18.45
2023-02-20T02:13:43.704Z,18.41
2023-02-20T02:14:43.688Z,18.39
2023-02-20T02:15:43.723Z,18.38
2023-02-20T02:16:43.720Z,18.34
2023-02-20T02:17:43.728Z,18.34
2023-02-20T02:18:43.771Z,18.32
2023-02-20T02:19:43.770Z,18.32
2023-02-20T02:20:43.787Z,18.30
2023-02-20T02:21:43.810Z,18.29
2023-02-20T02:22:43.853Z,18.30
2023-02-20T02:23:43.880Z,18.26
2023-02-20T02:24:43.945Z,18.25
2023-02-20T02:25:43.997Z,18.25
2023-02-20T02:26:44.035Z,18.22
2023-02-20T02:27:44.112Z,18.22
2023-02-20T02:28:44.157Z,18.23
2023-02-20T02:29:44.211Z,18.21
2023-02-20T02:30:44.352Z,18.20
2023-02-20T02:31:44.373Z,18.21
2023-02-20T02:32:44.423Z,18.18
2023-02-20T02:33:44.448Z,18.16
2023-02-20T02:34:44.565Z,18.14
2023-02-20T02:35:44.598Z,18.17
2023-02-20T02:36:44.623Z,18.15
2023-02-20T02:37:44.708Z,18.13
2023-02-20T02:38:44.750Z,18.14
2023-02-20T02:39:44.809Z,18.13
2023-02-20T02:40:44.866Z,18.12
2023-02-20T02:41:44.921Z,18.12
2023-02-20T02:42:44.962Z,18.11
2023-02-20T02:43:45.037Z,18.11
2023-02-20T02:44:45.083Z,18.11
2023-02-20T02:45:45.136Z,18.09
2023-02-20T02:46:45.807Z,18.09
2023-02-20T02:47:45.230Z,18.10
2023-02-20T02:48:45.262Z,18.09
2023-02-20T02:49:45.321Z,18.07
2023-02-20T02:50:45.358Z,18.07
2023-02-20T02:51:45.432Z,18.07
2023-02-20T02:52:45.461Z,18.05
2023-02-20T02:53:45.504Z,18.03
2023-02-20T02:54:45.568Z,18.03
2023-02-20T02:55:45.621Z,18.03
2023-02-20T02:56:45.685Z,18.02
2023-02-20T02:57:45.736Z,18.01
2023-02-20T02:58:45.774Z,18.02
2023-02-20T02:59:45.813Z,18.01
2023-02-20T03:00:45.884Z,18.01
2023-02-20T03:01:45.926Z,18.00
2023-02-20T03:02:45.951Z,17.98
2023-02-20T03:03:45.984Z,18.00
2023-02-20T03:04:46.022Z,18.01
2023-02-20T03:05:46.090Z,18.00
2023-02-20T03:06:46.117Z,17.99
2023-02-20T03:07:46.151Z,18.00
2023-02-20T03:08:46.198Z,18.00
2023-02-20T03:09:46.218Z,17.98
2023-02-20T03:10:46.263Z,17.98
2023-02-20T03:11:46.314Z,17.98
2023-02-20T03:12:46.330Z,17.96
2023-02-20T03:13:46.362Z,17.96
2023-02-20T03:14:46.395Z,17.96
2023-02-20T03:15:46.411Z,17.96
2023-02-20T03:16:46.463Z,17.95
2023-02-20T03:17:46.491Z,17.95
2023-02-20T03:18:46.530Z,17.95
2023-02-20T03:19:46.551Z,17.95
2023-02-20T03:20:46.594Z,17.95
2023-02-20T03:21:46.613Z,17.95
2023-02-20T03:22:46.620Z,17.96
2023-02-20T03:23:46.678Z,17.95
2023-02-20T03:24:46.731Z,17.94
2023-02-20T03:25:46.711Z,17.96
2023-02-20T03:26:46.771Z,17.95
2023-02-20T03:27:46.777Z,17.94
2023-02-20T03:28:46.825Z,17.95
2023-02-20T03:29:46.844Z,17.97
2023-02-20T03:30:46.852Z,17.95
2023-02-20T03:31:46.992Z,17.94
2023-02-20T03:32:46.888Z,17.93
2023-02-20T03:33:46.944Z,17.93
2023-02-20T03:34:46.963Z,17.94
2023-02-20T03:35:46.999Z,17.94
2023-02-20T03:36:47.052Z,17.93
2023-02-20T03:37:47.041Z,17.92
2023-02-20T03:38:47.098Z,17.93
2023-02-20T03:39:47.091Z,17.92
2023-02-20T03:40:47.151Z,17.92
2023-02-20T03:41:47.167Z,17.93
2023-02-20T03:42:47.191Z,17.93
2023-02-20T03:43:47.254Z,17.90
2023-02-20T03:44:47.277Z,17.90
2023-02-20T03:45:47.401Z,17.89
2023-02-20T03:46:47.340Z,17.91
2023-02-20T03:47:47.364Z,17.89
2023-02-20T03:48:47.395Z,17.88
2023-02-20T03:49:47.472Z,17.91
2023-02-20T03:50:47.478Z,17.89
2023-02-20T03:51:47.502Z,17.90
2023-02-20T03:52:47.587Z,17.90
2023-02-20T03:53:47.566Z,17.90
2023-02-20T03:54:47.592Z,17.87
2023-02-20T03:55:47.651Z,17.89
2023-02-20T03:56:47.652Z,17.90
2023-02-20T03:57:47.690Z,17.89
2023-02-20T03:58:47.704Z,17.90
2023-02-20T03:59:47.781Z,17.91
2023-02-20T04:00:47.777Z,17.90
2023-02-20T04:01:47.834Z,17.89
2023-02-20T04:02:47.857Z,17.89
2023-02-20T04:03:47.905Z,17.90
2023-02-20T04:04:47.938Z,17.89
2023-02-20T04:05:47.953Z,17.87
2023-02-20T04:06:47.987Z,17.86
2023-02-20T04:07:48.025Z,17.89
2023-02-20T04:08:48.050Z,17.89
2023-02-20T04:09:48.095Z,17.89
2023-02-20T04:10:48.129Z,17.89
2023-02-20T04:11:48.171Z,17.88
2023-02-20T04:12:48.210Z,17.89
2023-02-20T04:13:48.207Z,17.90
2023-02-20T04:14:48.239Z,17.90
2023-02-20T04:15:48.365Z,17.90
2023-02-20T04:16:48.367Z,17.90
2023-02-20T04:17:48.380Z,17.88
2023-02-20T04:18:48.424Z,17.89
2023-02-20T04:19:48.492Z,17.88
2023-02-20T04:20:48.491Z,17.89
2023-02-20T04:21:48.509Z,17.88
2023-02-20T04:22:48.571Z,17.89
2023-02-20T04:23:48.621Z,17.87
2023-02-20T04:24:48.668Z,17.87
2023-02-20T04:25:48.732Z,17.88
2023-02-20T04:26:48.746Z,17.88
2023-02-20T04:27:48.784Z,17.88
2023-02-20T04:28:48.818Z,17.88
2023-02-20T04:29:48.874Z,17.88
2023-02-20T04:30:48.975Z,17.87
2023-02-20T04:31:48.947Z,17.86
2023-02-20T04:32:49.009Z,17.85
2023-02-20T04:33:49.045Z,17.85
2023-02-20T04:34:49.101Z,17.85
2023-02-20T04:35:49.149Z,17.85
2023-02-20T04:36:49.223Z,17.84
2023-02-20T04:37:49.229Z,17.82
2023-02-20T04:38:49.271Z,17.83
2023-02-20T04:39:49.330Z,17.82
2023-02-20T04:40:49.570Z,17.83
2023-02-20T04:41:49.395Z,17.81
2023-02-20T04:42:49.478Z,17.82
2023-02-20T04:43:49.509Z,17.82
2023-02-20T04:44:49.554Z,17.81
2023-02-20T04:45:49.671Z,17.82
2023-02-20T04:46:49.644Z,17.81
2023-02-20T04:47:49.709Z,17.83
2023-02-20T04:48:49.761Z,17.83
2023-02-20T04:49:49.813Z,17.83
2023-02-20T04:50:49.841Z,17.82
2023-02-20T04:51:49.897Z,17.81
2023-02-20T04:52:49.926Z,17.82
2023-02-20T04:53:49.993Z,17.80
2023-02-20T04:54:50.025Z,17.81
2023-02-20T04:55:50.089Z,17.80
2023-02-20T04:56:50.131Z,17.80
2023-02-20T04:57:50.179Z,17.80
2023-02-20T04:58:50.206Z,17.80
2023-02-20T04:59:50.242Z,17.79
2023-02-20T05:00:50.292Z,17.77
2023-02-20T05:01:50.345Z,17.78
2023-02-20T05:02:50.410Z,17.77
2023-02-20T05:03:50.461Z,17.78
2023-02-20T05:06:50.587Z,17.77
2023-02-20T05:07:50.638Z,17.77
2023-02-20T05:08:50.681Z,17.77
2023-02-20T05:09:50.726Z,17.76
2023-02-20T05:10:50.776Z,17.77
2023-02-20T05:11:50.825Z,17.76
2023-02-20T05:12:50.894Z,17.75
2023-02-20T05:13:50.907Z,17.75
2023-02-20T05:14:50.932Z,17.75
2023-02-20T05:15:51.017Z,17.73
2023-02-20T05:16:51.017Z,17.74
2023-02-20T05:17:51.070Z,17.73
2023-02-20T05:18:51.106Z,17.73
2023-02-20T05:19:51.113Z,17.74
2023-02-20T05:22:51.226Z,17.73
2023-02-20T05:23:51.265Z,17.71
2023-02-20T05:24:51.319Z,17.71
2023-02-20T05:25:51.363Z,17.72
2023-02-20T05:26:51.411Z,17.72
2023-02-20T05:27:51.441Z,17.71
2023-02-20T05:28:51.465Z,17.73
2023-02-20T05:29:51.549Z,17.71
2023-02-20T05:30:51.595Z,17.71
2023-02-20T05:31:51.755Z,17.69
2023-02-20T05:32:51.649Z,17.69
2023-02-20T05:33:51.707Z,17.69
2023-02-20T05:34:51.741Z,17.68
2023-02-20T05:35:51.786Z,17.67
2023-02-20T05:36:51.834Z,17.68
2023-02-20T05:37:51.891Z,17.67
2023-02-20T05:38:51.908Z,17.68
2023-02-20T05:39:51.990Z,17.67
2023-02-20T05:40:52.025Z,17.66
2023-02-20T05:41:52.040Z,17.66
2023-02-20T05:42:52.122Z,17.66
2023-02-20T05:43:52.166Z,17.66
2023-02-20T05:44:52.217Z,17.65
2023-02-20T05:45:52.248Z,17.64
2023-02-20T05:47:52.350Z,17.64
2023-02-20T05:48:52.372Z,17.63
2023-02-20T05:50:52.450Z,17.62
2023-02-20T05:51:52.511Z,17.63
2023-02-20T05:52:52.575Z,17.62
2023-02-20T05:53:52.598Z,17.61
2023-02-20T05:54:52.630Z,17.62
2023-02-20T05:55:52.702Z,17.60
2023-02-20T05:56:52.736Z,17.60
2023-02-20T05:57:52.784Z,17.61
2023-02-20T05:58:52.809Z,17.60
2023-02-20T05:59:52.843Z,17.60
2023-02-20T06:00:59.926Z,17.59
2023-02-20T06:01:52.889Z,17.61
2023-02-20T06:02:52.885Z,17.61
2023-02-20T06:03:52.905Z,17.59
2023-02-20T06:04:52.930Z,17.60
2023-02-20T06:05:52.874Z,17.60
2023-02-20T06:06:52.842Z,17.59
2023-02-20T06:07:52.848Z,17.60
2023-02-20T06:08:52.863Z,17.61
2023-02-20T06:09:52.838Z,17.61
2023-02-20T06:10:52.817Z,17.60
2023-02-20T06:11:52.824Z,17.59
2023-02-20T06:12:52.838Z,17.61
2023-02-20T06:13:52.797Z,17.59
2023-02-20T06:14:52.816Z,17.60
2023-02-20T06:15:52.847Z,17.61
2023-02-20T06:16:52.786Z,17.59
2023-02-20T06:17:52.851Z,17.59
2023-02-20T06:18:52.906Z,17.59
2023-02-20T06:19:52.966Z,17.59
2023-02-20T06:20:52.791Z,17.57
2023-02-20T06:21:52.748Z,17.56
2023-02-20T06:22:52.756Z,17.58
2023-02-20T06:23:52.772Z,17.56
2023-02-20T06:24:52.725Z,17.57
2023-02-20T06:25:52.717Z,17.55
2023-02-20T06:26:52.735Z,17.56
2023-02-20T06:27:52.843Z,17.56
2023-02-20T06:28:52.840Z,17.56
2023-02-20T06:29:52.994Z,17.56
2023-02-20T06:30:52.724Z,17.58
2023-02-20T06:31:53.062Z,17.58
2023-02-20T06:32:52.770Z,18.26
2023-02-20T06:33:52.787Z,18.88
2023-02-20T06:34:53.009Z,19.03
2023-02-20T06:35:52.971Z,19.36
2023-02-20T06:36:53.441Z,19.67
2023-02-20T06:37:53.072Z,19.60
2023-02-20T06:38:53.122Z,19.45
2023-02-20T06:39:53.080Z,20.14
2023-02-20T06:40:53.091Z,20.23
2023-02-20T06:41:53.476Z,20.34
2023-02-20T06:42:54.398Z,20.79
2023-02-20T06:43:53.227Z,21.07
2023-02-20T06:44:53.152Z,21.55
2023-02-20T06:46:00.133Z,22.72
2023-02-20T06:46:53.531Z,22.58
2023-02-20T06:47:53.120Z,21.87
2023-02-20T06:48:53.099Z,21.83
2023-02-20T06:49:53.086Z,22.34
2023-02-20T06:50:53.169Z,22.43
2023-02-20T06:51:53.652Z,22.34
2023-02-20T06:52:53.154Z,23.36
2023-02-20T06:53:53.155Z,22.77
2023-02-20T06:54:53.126Z,22.91
2023-02-20T06:55:53.053Z,23.31
2023-02-20T06:56:53.487Z,23.42
2023-02-20T06:57:53.099Z,23.45
2023-02-20T06:58:53.009Z,23.32
2023-02-20T06:59:53.020Z,23.44
2023-02-20T07:00:53.048Z,23.66
2023-02-20T07:01:53.119Z,24.01
2023-02-20T07:02:52.999Z,23.94
2023-02-20T07:03:53.026Z,23.91
2023-02-20T07:04:52.979Z,23.77
2023-02-20T07:05:52.978Z,24.32
2023-02-20T07:06:52.979Z,24.26
2023-02-20T07:07:52.962Z,24.57
2023-02-20T07:08:52.998Z,24.39
2023-02-20T07:09:52.960Z,24.29
2023-02-20T07:10:52.947Z,24.16
2023-02-20T07:11:52.982Z,24.28
2023-02-20T07:12:52.971Z,24.44
2023-02-20T07:13:52.953Z,24.37
2023-02-20T07:14:52.946Z,24.74
2023-02-20T07:15:52.920Z,24.81
2023-02-20T07:16:52.906Z,24.66
2023-02-20T07:17:53.042Z,24.78
2023-02-20T07:18:52.908Z,24.89
2023-02-20T07:19:52.959Z,24.78
2023-02-20T07:20:54.980Z,24.87
2023-02-20T07:21:52.932Z,25.14
2023-02-20T07:22:52.994Z,25.42
2023-02-20T07:23:53.042Z,25.28
2023-02-20T07:24:53.118Z,25.32
2023-02-20T07:25:53.160Z,25.19
2023-02-20T07:28:04.038Z,24.48
2023-02-20T07:29:04.024Z,23.97
2023-02-20T07:30:04.076Z,23.47
2023-02-20T07:31:04.048Z,22.90
2023-02-20T07:32:04.077Z,22.61
2023-02-20T07:33:04.031Z,22.44
2023-02-20T07:34:04.028Z,21.84
2023-02-20T07:35:06.842Z,21.67
2023-02-20T07:36:03.993Z,20.86
2023-02-20T07:37:03.993Z,20.24
2023-02-20T07:38:04.212Z,21.48
2023-02-20T07:39:03.956Z,21.66
2023-02-20T07:40:03.986Z,21.74
2023-02-20T07:41:03.947Z,22.51
2023-02-20T07:42:03.944Z,22.69
2023-02-20T07:43:04.340Z,22.78
2023-02-20T07:44:03.930Z,23.11
2023-02-20T07:45:03.950Z,23.04
2023-02-20T07:46:03.965Z,22.87
2023-02-20T07:47:03.951Z,22.74
2023-02-20T07:48:03.926Z,22.73
2023-02-20T07:49:03.951Z,22.82
2023-02-20T07:50:03.935Z,22.91
2023-02-20T07:51:03.874Z,23.18
2023-02-20T07:52:03.887Z,23.29
2023-02-20T07:53:04.284Z,23.49
2023-02-20T07:54:03.873Z,23.62
2023-02-20T07:55:03.857Z,23.88
2023-02-20T07:56:03.841Z,23.82
2023-02-20T07:57:03.849Z,23.97
2023-02-20T07:58:03.830Z,23.83
2023-02-20T07:59:03.895Z,23.90
2023-02-20T08:00:03.999Z,23.88
2023-02-20T08:01:03.969Z,24.08
2023-02-20T08:02:04.223Z,24.67
2023-02-20T08:03:03.822Z,24.71
2023-02-20T08:04:03.801Z,24.57
2023-02-20T08:05:03.832Z,24.59
2023-02-20T08:06:03.788Z,24.69
2023-02-20T08:07:03.806Z,24.77
2023-02-20T08:08:03.855Z,24.45
2023-02-20T08:09:03.867Z,24.57
2023-02-20T08:10:03.875Z,24.54
2023-02-20T08:11:09.735Z,23.84
2023-02-20T08:12:04.845Z,23.11
2023-02-20T08:13:03.846Z,23.27
2023-02-20T08:14:03.838Z,23.48
2023-02-20T08:15:03.823Z,23.35
2023-02-20T08:16:03.866Z,23.59
2023-02-20T08:17:03.830Z,23.52
2023-02-20T08:18:07.818Z,23.26
2023-02-20T08:19:04.974Z,23.35
2023-02-20T08:20:03.832Z,23.23
2023-02-20T08:21:03.842Z,23.34
2023-02-20T08:22:03.789Z,24.80
2023-02-20T08:23:03.787Z,23.75
2023-02-20T08:24:03.802Z,23.70
2023-02-20T08:25:03.768Z,23.64
2023-02-20T08:26:03.755Z,23.59
2023-02-20T08:27:03.737Z,23.66
2023-02-20T08:28:03.755Z,23.72
2023-02-20T08:29:03.715Z,23.84
2023-02-20T08:30:03.765Z,24.00
2023-02-20T08:31:03.739Z,24.19
2023-02-20T08:32:03.792Z,24.10
2023-02-20T08:33:03.718Z,24.13
2023-02-20T08:34:03.785Z,20.33
2023-02-20T08:35:03.733Z,19.40
2023-02-20T08:36:03.803Z,19.11
2023-02-20T08:37:03.790Z,19.03
2023-02-20T08:38:03.853Z,19.19
2023-02-20T08:39:03.810Z,19.91
2023-02-20T08:40:03.861Z,20.23
2023-02-20T08:41:03.901Z,20.58
2023-02-20T08:42:04.015Z,21.68
2023-02-20T08:43:03.986Z,21.86
2023-02-20T08:44:04.305Z,22.53
2023-02-20T08:45:04.129Z,22.82
2023-02-20T08:46:04.187Z,22.21
2023-02-20T08:47:05.190Z,22.52
2023-02-20T08:48:04.179Z,22.31
2023-02-20T08:49:04.241Z,22.20
2023-02-20T08:50:04.282Z,22.23
2023-02-20T08:51:04.360Z,21.93
2023-02-20T08:52:04.472Z,21.92
2023-02-20T08:53:04.413Z,21.70
2023-02-20T08:54:04.410Z,21.51
2023-02-20T08:55:04.429Z,21.30
2023-02-20T08:56:04.429Z,21.35
2023-02-20T08:57:04.498Z,21.33
2023-02-20T08:58:04.500Z,20.99
2023-02-20T08:59:04.508Z,21.19
2023-02-20T09:00:04.567Z,20.99
2023-02-20T09:01:04.670Z,20.45
2023-02-20T09:02:04.679Z,20.49
2023-02-20T09:03:04.689Z,20.64
2023-02-20T09:04:04.714Z,20.82
2023-02-20T09:05:04.751Z,20.77
2023-02-20T09:06:04.800Z,20.87
2023-02-20T09:07:04.882Z,20.42
2023-02-20T09:08:04.908Z,20.69
2023-02-20T09:09:05.286Z,21.02
2023-02-20T09:10:04.980Z,20.83
2023-02-20T09:11:05.019Z,20.57
2023-02-20T09:12:05.104Z,20.85
2023-02-20T09:13:05.158Z,21.05
2023-02-20T09:14:05.230Z,20.88
2023-02-20T09:15:05.267Z,20.54
2023-02-20T09:16:05.335Z,20.55
2023-02-20T09:17:05.345Z,20.84
2023-02-20T09:18:05.406Z,20.59
2023-02-20T09:19:05.409Z,20.82
2023-02-20T09:20:05.425Z,20.41
2023-02-20T09:21:05.483Z,20.01
2023-02-20T09:22:05.541Z,20.07
2023-02-20T09:23:05.584Z,20.86
2023-02-20T09:24:05.789Z,21.16
2023-02-20T09:25:05.708Z,21.31
2023-02-20T09:26:05.744Z,21.56
2023-02-20T09:27:05.798Z,21.76
2023-02-20T09:28:05.786Z,21.88
2023-02-20T09:29:06.309Z,21.76
2023-02-20T09:30:05.890Z,21.76
2023-02-20T09:31:05.837Z,21.04
2023-02-20T09:32:06.020Z,22.01
2023-02-20T09:33:05.934Z,21.93
2023-02-20T09:34:05.926Z,22.22
2023-02-20T09:35:06.291Z,22.09
2023-02-20T09:36:05.953Z,20.98
2023-02-20T09:37:05.994Z,19.11
2023-02-20T09:38:06.011Z,18.86
2023-02-20T09:39:06.026Z,19.15
2023-02-20T09:40:06.325Z,19.32
2023-02-20T09:41:06.125Z,19.85
2023-02-20T09:42:06.101Z,20.06
2023-02-20T09:43:06.140Z,20.61
2023-02-20T09:44:06.223Z,20.54
2023-02-20T09:45:06.267Z,20.53
2023-02-20T09:46:06.315Z,20.95
2023-02-20T09:47:06.323Z,21.56
2023-02-20T09:48:06.282Z,21.92
2023-02-20T09:49:07.015Z,22.81
2023-02-20T09:50:06.398Z,22.20
2023-02-20T09:51:06.420Z,21.86
2023-02-20T09:52:06.411Z,22.71
2023-02-20T09:53:06.428Z,23.11
2023-02-20T09:54:06.464Z,23.00
2023-02-20T09:55:06.472Z,22.98
2023-02-20T09:56:06.530Z,23.15
2023-02-20T09:57:06.559Z,23.16
2023-02-20T09:58:06.583Z,23.47
2023-02-20T09:59:06.598Z,23.49
2023-02-20T10:00:06.874Z,23.48
2023-02-20T10:01:06.719Z,23.68
2023-02-20T10:02:06.825Z,23.82
2023-02-20T10:03:06.852Z,24.05
2023-02-20T10:04:06.797Z,24.49
2023-02-20T10:05:06.806Z,24.28
2023-02-20T10:06:06.855Z,24.74
2023-02-20T10:07:06.928Z,24.60
2023-02-20T10:08:06.921Z,24.77
2023-02-20T10:09:06.960Z,24.89
2023-02-20T10:10:06.999Z,24.81
2023-02-20T10:11:07.323Z,24.76
2023-02-20T10:12:07.013Z,24.81
2023-02-20T10:13:07.058Z,24.94
2023-02-20T10:14:07.033Z,25.13
2023-02-20T10:15:07.037Z,24.84
2023-02-20T10:16:07.134Z,24.77
2023-02-20T10:17:07.126Z,24.89
2023-02-20T10:18:07.265Z,24.90
2023-02-20T10:19:07.370Z,24.95
2023-02-20T10:21:07.424Z,25.07
2023-02-20T10:22:07.546Z,25.08
2023-02-20T10:23:07.513Z,25.29
2023-02-20T10:24:07.580Z,25.01
2023-02-20T10:25:07.687Z,25.25
2023-02-20T10:26:07.659Z,25.09
2023-02-20T10:27:07.725Z,24.92
2023-02-20T10:28:07.759Z,24.91
2023-02-20T10:29:07.810Z,24.42
2023-02-20T10:30:07.993Z,23.91
2023-02-20T10:31:07.930Z,23.40
2023-02-20T10:32:08.058Z,23.81
2023-02-20T10:33:08.049Z,23.93
2023-02-20T10:35:08.169Z,23.87
2023-02-20T10:37:08.286Z,23.27
2023-02-20T10:38:08.471Z,23.22
2023-02-20T10:39:08.451Z,22.97
2023-02-20T10:40:08.840Z,23.23
2023-02-20T10:41:08.475Z,23.02
2023-02-20T10:42:08.557Z,21.13
2023-02-20T10:43:08.564Z,21.00
2023-02-20T10:44:08.549Z,21.95
2023-02-20T10:45:08.854Z,22.43
2023-02-20T10:46:10.579Z,22.90
2023-02-20T10:47:08.639Z,22.36
2023-02-20T10:48:08.629Z,21.63
2023-02-20T10:49:08.593Z,21.98
2023-02-20T10:50:08.616Z,21.03
2023-02-20T10:51:08.606Z,21.98
2023-02-20T10:52:12.538Z,22.16
2023-02-20T10:53:09.691Z,22.37
2023-02-20T10:54:08.616Z,22.16
2023-02-20T10:55:08.630Z,22.39
2023-02-20T10:56:08.909Z,22.29
2023-02-20T10:57:09.488Z,22.77
2023-02-20T10:58:08.613Z,22.47
2023-02-20T10:59:08.650Z,22.36
2023-02-20T11:00:09.606Z,20.98
2023-02-20T11:01:08.744Z,21.37
2023-02-20T11:02:08.652Z,21.73
2023-02-20T11:03:08.627Z,23.39
2023-02-20T11:04:09.635Z,24.07
2023-02-20T11:05:08.560Z,24.25
2023-02-20T11:06:08.967Z,25.91
2023-02-20T11:07:08.566Z,22.01
2023-02-20T11:08:08.531Z,24.52
2023-02-20T11:09:08.551Z,23.34
2023-02-20T11:10:08.505Z,22.88
2023-02-20T11:11:08.613Z,23.54
2023-02-20T11:12:08.510Z,23.46
2023-02-20T11:13:08.473Z,23.64
2023-02-20T11:14:08.438Z,23.40
2023-02-20T11:15:08.495Z,23.37
2023-02-20T11:16:08.587Z,23.75
2023-02-20T11:17:08.571Z,24.14
2023-02-20T11:18:08.628Z,23.99
2023-02-20T11:19:08.610Z,23.96
2023-02-20T11:20:08.622Z,23.91
2023-02-20T11:22:08.669Z,24.26
2023-02-20T11:23:08.679Z,24.27
2023-02-20T11:24:08.613Z,24.16
2023-02-20T11:25:08.696Z,24.07
2023-02-20T11:26:08.883Z,24.17
2023-02-20T11:27:08.813Z,24.10
2023-02-20T11:28:08.946Z,24.54
2023-02-20T11:29:08.937Z,24.36
2023-02-20T11:30:09.001Z,24.14
2023-02-20T11:31:09.416Z,24.25
2023-02-20T11:32:09.204Z,23.95
2023-02-20T11:33:09.866Z,25.31
2023-02-20T11:34:09.272Z,24.30
2023-02-20T11:35:09.329Z,24.34
2023-02-20T11:36:09.899Z,24.49
2023-02-20T11:37:09.417Z,24.37
2023-02-20T11:38:09.485Z,24.18
2023-02-20T11:39:10.097Z,24.11
2023-02-20T11:40:09.620Z,24.14
2023-02-20T11:41:09.672Z,24.25
2023-02-20T11:42:09.867Z,24.13
2023-02-20T11:43:09.806Z,24.34
2023-02-20T11:44:09.791Z,24.92
2023-02-20T11:45:09.787Z,25.14
2023-02-20T11:46:09.931Z,24.93
2023-02-20T11:47:10.369Z,24.64
2023-02-20T11:48:09.963Z,24.45
2023-02-20T11:49:10.035Z,24.34
2023-02-20T11:50:18.722Z,24.27
2023-02-20T11:51:11.043Z,24.20
2023-02-20T11:52:10.386Z,24.14
2023-02-20T11:53:10.067Z,24.07
2023-02-20T11:54:10.056Z,24.03
2023-02-20T11:55:10.026Z,23.99
2023-02-20T11:56:10.068Z,23.97
2023-02-20T11:57:10.402Z,23.85
2023-02-20T11:58:10.028Z,23.78
2023-02-20T11:59:10.021Z,23.73
2023-02-20T12:00:10.063Z,23.69
2023-02-20T12:01:10.164Z,23.68
2023-02-20T12:02:10.165Z,23.62
2023-02-20T12:03:10.200Z,23.59
2023-02-20T12:04:10.341Z,23.58
2023-02-20T12:05:10.378Z,23.50
2023-02-20T12:06:10.523Z,23.46
2023-02-20T12:07:10.908Z,23.44
2023-02-20T12:08:10.461Z,23.38
2023-02-20T12:09:10.547Z,23.33
2023-02-20T12:10:10.572Z,23.31
2023-02-20T12:11:10.657Z,23.28
2023-02-20T12:12:10.733Z,23.22
2023-02-20T12:13:10.775Z,23.19
2023-02-20T12:14:10.827Z,23.10
2023-02-20T12:15:10.854Z,23.08
2023-02-20T12:16:11.382Z,23.01
2023-02-20T12:17:10.978Z,23.03
2023-02-20T12:18:11.041Z,22.97
2023-02-20T12:19:11.133Z,22.90
2023-02-20T12:20:11.200Z,22.85
2023-02-20T12:21:11.219Z,22.81
2023-02-20T12:22:11.371Z,22.77
2023-02-20T12:23:11.348Z,22.74
2023-02-20T12:24:11.384Z,22.67
2023-02-20T12:25:11.473Z,22.64
2023-02-20T12:26:11.844Z,22.61
2023-02-20T12:27:11.603Z,22.59
2023-02-20T12:32:12.644Z,22.86
2023-02-20T12:35:12.040Z,23.02
2023-02-20T12:37:12.399Z,23.22
2023-02-20T12:38:12.141Z,23.13
2023-02-20T12:39:12.144Z,22.96
2023-02-20T12:40:12.278Z,22.90
2023-02-20T12:41:12.271Z,22.95
2023-02-20T12:42:12.394Z,22.91
2023-02-20T12:43:12.333Z,22.85
2023-02-20T12:44:13.774Z,22.84
2023-02-20T12:45:12.439Z,22.79
2023-02-20T12:46:12.922Z,22.71
2023-02-20T12:47:12.544Z,22.69
2023-02-20T12:48:12.632Z,22.63
2023-02-20T12:49:12.690Z,22.60
2023-02-20T12:50:12.757Z,22.58
2023-02-20T12:51:12.802Z,22.53
2023-02-20T12:52:12.847Z,22.49
2023-02-20T12:53:13.365Z,22.47
2023-02-20T12:54:12.945Z,22.45
2023-02-20T12:55:13.003Z,22.42
2023-02-20T12:56:13.359Z,22.42
2023-02-20T12:57:13.125Z,22.33
2023-02-20T12:58:13.208Z,22.32
2023-02-20T12:59:13.199Z,22.30
2023-02-20T13:00:13.272Z,22.28
2023-02-20T13:01:13.380Z,22.22
2023-02-20T13:02:13.383Z,22.19
2023-02-20T13:03:13.442Z,22.20
2023-02-20T13:04:13.443Z,22.18
2023-02-20T13:05:13.488Z,22.16
2023-02-20T13:06:13.975Z,22.13
2023-02-20T13:07:13.568Z,22.12
2023-02-20T13:08:13.616Z,22.12
2023-02-20T13:09:13.650Z,22.10
2023-02-20T13:10:13.644Z,22.08
2023-02-20T13:11:13.703Z,22.05
2023-02-20T13:12:13.776Z,22.04
2023-02-20T13:13:13.824Z,22.02
2023-02-20T13:14:13.854Z,21.99
2023-02-20T13:15:13.874Z,21.95